Daily Summary

Last 30 Days

Daily Data | Pacific/Honolulu
as of 1/20/21 12:54 AM HST
Date Daily Max Temp (°F) Time of Max Temp Daily Min Temp (°F) Time of Min Temp Daily Rain (In) Seasonal Rainfall (In) Wind Spd (mph) Daily Max Wind (mph) Time of Max Wind Max Wind Dir (°) Daily Solar Rad (Cal/cm2) Daily ETo (in) Dew Pt (°F) Max RH (%) Min RH (%) Max Press (inHg) Time of Max Press Min Press (inHg) Time of Min Press Bat Volt Min Day (V)
1/19/21 80.4 1306 69.3 0333 0.29 1.75 6.0 36.4 0007 NE | 47 399 0.137 66.0 92 57 30.06 0857 29.93 1432 12.7
1/18/21 72.8 0530 67.1 1409 0.69 1.46 10.8 44.9 1604 NNE | 32 142 0.066 64.0 88 70 30.09 1018 29.90 1555 12.8
1/17/21 81.1 1426 69.3 0735 0.17 0.77 3.7 16.2 2338 NW | 304 300 0.097 67.4 92 62 30.08 2306 29.94 1506 12.7
1/16/21 82.9 1411 70.0 0751 0.11 0.60 3.3 12.7 0306 ENE | 71 430 0.142 67.2 92 56 30.10 0751 29.96 1438 12.7
1/15/21 83.8 1327 69.5 0315 0.00 0.49 4.0 14.2 1318 NE | 40 393 0.136 66.0 88 48 30.13 0948 30.00 1450 12.7
1/14/21 82.3 1355 71.4 2358 0.00 0.49 3.5 15.7 0005 NNE | 25 394 0.130 67.2 86 56 30.11 2155 29.97 1438 12.7
1/13/21 81.6 1304 70.4 0659 0.06 0.49 4.3 18.4 2311 NNE | 25 338 0.117 68.0 88 65 30.10 0927 29.96 1431 12.7
1/12/21 82.4 1251 71.4 0519 0.00 0.43 2.8 14.7 1433 E | 84 443 0.144 67.1 82 58 30.11 0059 29.96 1433 12.7
1/11/21 81.6 1421 70.3 0710 0.00 0.43 3.4 13.9 1625 NNE | 29 281 0.100 67.1 91 60 30.12 0858 30.00 1429 12.8
1/10/21 81.1 1234 70.3 0425 0.03 0.43 4.8 16.5 1648 ENE | 58 369 0.131 65.9 88 57 30.13 2159 29.98 1510 12.8
1/9/21 82.3 1415 68.8 0535 0.09 0.40 3.3 14.6 2026 NNE | 12 240 0.088 65.3 90 57 30.10 0925 29.96 1459 12.7
1/8/21 81.1 1100 66.4 0723 0.00 0.31 3.0 11.3 1744 NNE | 30 274 0.092 63.9 90 52 30.15 0931 29.99 1440 12.7
1/7/21 82.1 1152 69.9 2351 0.00 0.31 5.4 20.1 0102 NNE | 18 379 0.144 65.0 87 54 30.17 0858 30.00 1512 12.8
1/6/21 80.1 1340 69.7 0433 0.04 0.31 5.9 21.5 1350 NNE | 28 400 0.140 66.2 91 61 30.17 0801 30.04 1459 12.7
1/5/21 80.2 1324 70.8 0543 0.03 0.27 4.8 24.1 1612 NNE | 17 343 0.120 66.1 90 61 30.20 1000 30.04 1435 12.8
1/4/21 80.6 1421 71.7 2330 0.06 0.24 5.5 21.2 1544 NE | 34 343 0.128 66.0 88 58 30.20 0736 30.05 1423 12.8
1/3/21 79.5 1411 72.2 0355 0.04 0.18 7.7 26.2 0840 NNE | 30 414 0.151 65.9 84 64 30.21 0849 30.08 1500 12.8
1/2/21 78.7 1053 72.4 0253 0.04 0.14 8.2 32.2 0208 NNE | 15 378 0.146 65.6 83 60 30.21 0934 30.09 0436 12.7
1/1/21 79.4 1242 71.0 0501 0.10 0.10 10.0 37.7 0714 NNE | 17 418 0.162 66.0 86 63 30.18 0926 30.04 1451 12.8
12/31/20 78.9 1253 74.3 2109 0.01 20.00 8.4 28.5 1500 NE | 35 349 0.147 65.1 76 58 30.19 0001 30.07 1529 12.8
12/30/20 80.7 1236 73.1 0107 0.00 19.99 6.5 23.8 1120 E | 86 366 0.146 65.2 84 58 30.20 2233 30.04 1419 12.7
12/29/20 82.1 1159 70.5 0103 0.00 19.99 3.0 13.5 0743 E | 79 271 0.096 67.9 89 60 30.18 2232 30.04 1530 12.7
12/28/20 82.9 1336 69.0 0705 0.18 19.99 2.6 11.6 1356 SSW | 209 350 0.112 68.0 91 57 30.15 0936 30.05 0339 12.7
12/27/20 81.3 1326 72.9 2359 0.04 19.81 7.8 24.0 0937 ENE | 65 419 0.160 66.0 79 59 30.16 0912 30.02 1449 12.7
12/26/20 77.1 2332 69.5 1253 0.84 19.77 7.0 31.3 1149 NNE | 30 197 0.075 65.4 94 53 30.19 0938 30.08 0418 12.8
12/25/20 79.0 1033 70.9 2024 0.67 18.93 3.9 23.9 2137 NE | 56 293 0.094 67.9 94 66 30.21 1016 30.08 1512 12.8
12/24/20 80.9 1356 69.4 0419 0.00 18.26 4.7 20.2 1408 NNE | 28 420 0.145 66.2 88 58 30.17 1023 30.05 1503 12.7
12/23/20 81.7 1229 68.9 0120 0.00 18.26 4.0 11.4 1344 SW | 232 423 0.138 66.3 90 61 30.13 2308 30.00 0407 12.7
12/22/20 82.9 1148 70.4 2352 0.00 18.26 4.6 18.4 1704 NNE | 30 421 0.150 65.5 86 53 30.08 1006 29.97 1518 12.8
12/21/20 80.3 1335 75.0 2159 0.05 18.26 6.5 23.0 1234 NNE | 30 443 0.153 67.9 82 66 30.08 0941 29.96 1540 12.8
Max 83.8 - 75.0 - 0.84 - 10.8 44.9 - - 443 0.162 68.0 94 70 30.21 - 30.09 - 12.8
Avg - - - - - - 5.3 - - - - - 66.2 - - - - - - -
Min 72.8 - 66.4 - 0.00 - 2.6 11.3 - - 142 0.066 63.9 76 48 30.06 - 29.90 - 12.7